createdAt,value
2023-03-08T00:03:02.852Z,4.95
2023-03-08T00:06:12.199Z,4.98
2023-03-08T00:09:18.584Z,5.02
2023-03-08T00:12:23.109Z,5.04
2023-03-08T00:15:29.435Z,5.08
2023-03-08T00:18:34.117Z,5.11
2023-03-08T00:21:40.368Z,5.13
2023-03-08T00:24:46.773Z,5.14
2023-03-08T00:27:51.368Z,5.16
2023-03-08T00:31:02.156Z,5.15
2023-03-08T00:34:08.545Z,5.16
2023-03-08T00:37:13.140Z,5.16
2023-03-08T00:40:19.674Z,5.13
2023-03-08T00:43:26.484Z,5.12
2023-03-08T00:46:32.803Z,5.10
2023-03-08T00:49:37.362Z,5.08
2023-03-08T00:52:43.686Z,5.06
2023-03-08T00:55:54.996Z,5.05
2023-03-08T00:59:01.294Z,5.06
2023-03-08T01:02:05.925Z,5.08
2023-03-08T01:05:13.767Z,5.13
2023-03-08T01:08:21.197Z,5.19
2023-03-08T01:11:28.916Z,5.22
2023-03-08T01:14:35.219Z,5.25
2023-03-08T01:17:39.918Z,5.26
2023-03-08T01:20:46.352Z,5.26
2023-03-08T01:23:53.689Z,5.26
2023-03-08T01:27:01.035Z,5.26
2023-03-08T01:30:08.990Z,5.25
2023-03-08T01:33:15.306Z,5.24
2023-03-08T01:36:23.563Z,5.24
2023-03-08T01:39:30.036Z,5.24
2023-03-08T01:42:38.635Z,5.23
2023-03-08T01:46:06.913Z,5.23
2023-03-08T01:49:16.387Z,5.21
2023-03-08T01:52:27.560Z,5.18
2023-03-08T01:55:35.319Z,5.16
2023-03-08T01:58:43.104Z,5.13
2023-03-08T02:01:50.261Z,5.10
2023-03-08T02:04:56.675Z,5.08
2023-03-08T02:08:01.358Z,5.05
2023-03-08T02:11:08.340Z,5.02
2023-03-08T02:14:14.805Z,5.00
2023-03-08T02:17:21.347Z,4.97
2023-03-08T02:20:32.182Z,4.96
2023-03-08T02:23:38.564Z,4.97
2023-03-08T02:26:43.256Z,4.97
2023-03-08T02:29:49.725Z,4.97
2023-03-08T02:32:56.205Z,4.97
2023-03-08T02:36:05.189Z,4.98
2023-03-08T02:39:11.581Z,4.97
2023-03-08T02:42:16.108Z,4.97
2023-03-08T02:45:22.459Z,4.97
2023-03-08T02:48:27.015Z,4.97
2023-03-08T02:51:33.331Z,4.97
2023-03-08T02:54:38.018Z,4.96
2023-03-08T02:57:44.368Z,4.94
2023-03-08T03:00:48.894Z,4.92
2023-03-08T03:03:56.813Z,4.89
2023-03-08T03:07:03.892Z,4.87
2023-03-08T03:10:13.844Z,4.86
2023-03-08T03:13:20.712Z,4.83
2023-03-08T03:16:28.051Z,4.79
2023-03-08T03:19:34.421Z,4.76
2023-03-08T03:22:39.097Z,4.75
2023-03-08T03:25:45.431Z,4.72
2023-03-08T03:28:50.233Z,4.71
2023-03-08T03:31:56.512Z,4.70
2023-03-08T03:35:03.070Z,4.68
2023-03-08T03:38:09.436Z,4.66
2023-03-08T03:41:14.871Z,4.63
2023-03-08T03:44:21.189Z,4.59
2023-03-08T03:47:25.753Z,4.56
2023-03-08T03:50:32.537Z,4.52
2023-03-08T03:53:39.236Z,4.50
2023-03-08T03:56:45.488Z,4.48
2023-03-08T03:59:51.768Z,4.46
2023-03-08T04:02:58.096Z,4.43
2023-03-08T04:06:08.274Z,4.42
2023-03-08T04:09:17.683Z,4.40
2023-03-08T04:12:24.044Z,4.36
2023-03-08T04:15:29.399Z,4.32
2023-03-08T04:18:36.209Z,4.23
2023-03-08T04:21:42.634Z,4.13
2023-03-08T04:24:47.310Z,4.09
2023-03-08T04:27:53.675Z,4.04
2023-03-08T04:30:58.202Z,3.97
2023-03-08T04:34:05.420Z,3.88
2023-03-08T04:37:12.086Z,3.78
2023-03-08T04:40:19.081Z,3.72
2023-03-08T04:43:25.518Z,3.65
2023-03-08T04:46:30.243Z,3.65
2023-03-08T04:49:36.644Z,3.66
2023-03-08T04:52:41.598Z,3.67
2023-03-08T04:55:47.947Z,3.70
2023-03-08T04:58:52.449Z,3.73
2023-03-08T05:01:58.817Z,3.76
2023-03-08T05:05:04.477Z,3.80
2023-03-08T05:08:10.897Z,3.86
2023-03-08T05:11:17.855Z,3.89
2023-03-08T05:14:24.229Z,3.94
2023-03-08T05:17:29.230Z,3.99
2023-03-08T05:20:35.617Z,4.03
2023-03-08T05:23:41.949Z,4.07
2023-03-08T05:26:46.565Z,4.10
2023-03-08T05:29:54.597Z,4.12
2023-03-08T05:33:00.931Z,4.15
2023-03-08T05:36:06.227Z,4.18
2023-03-08T05:39:13.636Z,4.22
2023-03-08T05:42:20.917Z,4.27
2023-03-08T05:45:27.483Z,4.31
2023-03-08T05:48:34.823Z,4.33
2023-03-08T05:51:41.331Z,4.35
2023-03-08T05:54:47.751Z,4.36
2023-03-08T05:57:52.422Z,4.36
2023-03-08T06:00:58.748Z,4.36
2023-03-08T06:04:03.312Z,4.39
2023-03-08T06:07:09.753Z,4.43
2023-03-08T06:10:15.992Z,4.46
2023-03-08T06:13:22.353Z,4.50
2023-03-08T06:16:27.082Z,4.53
2023-03-08T06:19:33.633Z,4.56
2023-03-08T06:22:40.059Z,4.60
2023-03-08T06:25:46.234Z,4.65
2023-03-08T06:28:52.588Z,4.69
2023-03-08T06:31:57.147Z,4.74
2023-03-08T06:35:03.464Z,4.78
2023-03-08T06:38:08.151Z,4.83
2023-03-08T06:41:15.884Z,4.87
2023-03-08T06:44:22.537Z,4.92
2023-03-08T06:47:31.157Z,4.99
2023-03-08T06:50:38.133Z,5.07
2023-03-08T06:53:44.465Z,5.16
2023-03-08T06:56:49.439Z,5.23
2023-03-08T06:59:55.774Z,5.30
2023-03-08T07:03:00.608Z,5.37
2023-03-08T07:06:09.810Z,5.45
2023-03-08T07:09:16.348Z,5.52
2023-03-08T07:12:22.686Z,5.59
2023-03-08T07:15:27.683Z,5.66
2023-03-08T07:18:34.528Z,5.71
2023-03-08T07:21:44.506Z,5.77
2023-03-08T07:24:51.764Z,5.85
2023-03-08T07:27:59.813Z,5.91
2023-03-08T07:31:06.495Z,6.02
2023-03-08T07:34:13.392Z,6.11
2023-03-08T07:37:19.678Z,6.17
2023-03-08T07:40:26.064Z,6.20
2023-03-08T07:43:32.378Z,6.19
2023-03-08T07:46:37.060Z,6.14
2023-03-08T07:49:43.385Z,6.15
2023-03-08T07:52:47.944Z,6.22
2023-03-08T07:55:54.373Z,6.30
2023-03-08T07:59:00.757Z,6.36
2023-03-08T08:02:05.743Z,6.39
2023-03-08T08:05:12.648Z,6.38
2023-03-08T08:08:19.032Z,6.41
2023-03-08T08:11:24.029Z,6.47
2023-03-08T08:14:30.368Z,6.51
2023-03-08T08:17:35.021Z,6.54
2023-03-08T08:20:41.725Z,6.59
2023-03-08T08:23:48.684Z,6.65
2023-03-08T08:26:55.141Z,6.68
2023-03-08T08:30:01.894Z,6.68
2023-03-08T08:33:08.156Z,6.68
2023-03-08T08:36:17.424Z,6.71
2023-03-08T08:39:23.839Z,6.71
2023-03-08T08:42:28.420Z,6.69
2023-03-08T08:45:34.737Z,6.65
2023-03-08T08:48:39.312Z,6.65
2023-03-08T08:51:45.609Z,6.71
2023-03-08T08:54:50.327Z,6.83
2023-03-08T08:57:56.675Z,6.96
2023-03-08T09:01:01.190Z,7.12
2023-03-08T09:04:07.547Z,7.29
2023-03-08T09:10:43.607Z,7.48
2023-03-08T09:13:50.301Z,7.56
2023-03-08T09:16:56.857Z,7.65
2023-03-08T09:20:06.162Z,7.77
2023-03-08T09:23:12.779Z,7.89
2023-03-08T09:26:19.763Z,7.96
2023-03-08T09:29:26.356Z,8.04
2023-03-08T09:32:34.169Z,8.08
2023-03-08T09:35:40.904Z,8.13
2023-03-08T09:38:48.432Z,8.11
2023-03-08T09:41:57.538Z,8.16
2023-03-08T09:45:28.384Z,8.15
2023-03-08T09:48:35.903Z,8.21
2023-03-08T09:51:47.511Z,8.39
2023-03-08T09:54:55.170Z,8.60
2023-03-08T09:58:04.269Z,8.77
2023-03-08T10:01:24.318Z,8.84
2023-03-08T10:04:47.082Z,8.85
2023-03-08T10:08:00.438Z,8.88
2023-03-08T10:11:16.871Z,8.87
2023-03-08T10:14:27.815Z,8.85
2023-03-08T10:17:45.090Z,8.68
2023-03-08T10:20:51.777Z,8.48
2023-03-08T10:24:03.942Z,8.33
2023-03-08T10:27:21.925Z,8.28
2023-03-08T10:30:30.268Z,8.27
2023-03-08T10:33:38.033Z,8.30
2023-03-08T10:36:53.839Z,8.36
2023-03-08T10:40:05.575Z,8.40
2023-03-08T10:43:26.579Z,8.55
2023-03-08T10:46:33.994Z,8.63
2023-03-08T10:49:40.578Z,8.72
2023-03-08T10:52:48.876Z,8.91
2023-03-08T10:55:56.425Z,9.15
2023-03-08T10:59:04.345Z,9.40
2023-03-08T11:02:23.001Z,9.66
2023-03-08T11:05:29.963Z,9.97
2023-03-08T11:08:39.416Z,10.23
2023-03-08T11:11:46.255Z,10.49
2023-03-08T11:14:53.285Z,10.69
2023-03-08T11:18:05.884Z,10.67
2023-03-08T11:21:22.229Z,10.51
2023-03-08T11:24:42.368Z,10.31
2023-03-08T11:28:09.255Z,10.16
2023-03-08T11:31:27.604Z,10.10
2023-03-08T11:34:50.642Z,10.03
2023-03-08T11:38:03.903Z,9.95
2023-03-08T11:41:22.512Z,9.88
2023-03-08T11:44:52.278Z,9.81
2023-03-08T11:48:22.572Z,9.75
2023-03-08T11:51:36.527Z,9.73
2023-03-08T11:54:54.314Z,9.74
2023-03-08T11:58:06.542Z,9.84
2023-03-08T12:01:19.517Z,10.02
2023-03-08T12:04:38.859Z,10.34
2023-03-08T12:07:50.352Z,10.67
2023-03-08T12:11:02.037Z,10.92
2023-03-08T12:14:17.722Z,11.09
2023-03-08T12:17:27.189Z,11.14
2023-03-08T12:20:40.172Z,11.15
2023-03-08T12:23:57.330Z,11.16
2023-03-08T12:27:11.334Z,11.20
2023-03-08T12:30:27.757Z,11.15
2023-03-08T12:33:35.250Z,11.13
2023-03-08T12:36:43.687Z,11.16
2023-03-08T12:39:59.234Z,11.13
2023-03-08T12:43:11.532Z,11.11
2023-03-08T12:46:18.258Z,11.16
2023-03-08T12:49:31.576Z,11.16
2023-03-08T12:52:38.218Z,11.21
2023-03-08T12:55:45.030Z,11.33
2023-03-08T12:58:57.129Z,11.33
2023-03-08T13:02:26.878Z,11.28
2023-03-08T13:05:36.590Z,11.18
2023-03-08T13:08:50.422Z,11.09
2023-03-08T13:12:21.937Z,11.01
2023-03-08T13:15:29.449Z,10.87
2023-03-08T13:18:37.119Z,10.79
2023-03-08T13:21:52.229Z,10.73
2023-03-08T13:25:03.774Z,10.65
2023-03-08T13:28:13.842Z,10.59
2023-03-08T13:31:23.319Z,10.58
2023-03-08T13:34:32.603Z,10.58
2023-03-08T13:37:39.923Z,10.61
2023-03-08T13:40:54.563Z,10.64
2023-03-08T13:44:05.720Z,10.69
2023-03-08T13:47:25.837Z,10.73
2023-03-08T13:50:35.364Z,10.77
2023-03-08T13:53:44.418Z,10.72
2023-03-08T13:56:55.820Z,10.64
2023-03-08T14:00:22.084Z,10.55
2023-03-08T14:03:31.879Z,10.48
2023-03-08T14:06:41.652Z,10.40
2023-03-08T14:09:48.477Z,10.32
2023-03-08T14:12:55.310Z,10.26
2023-03-08T14:16:04.467Z,10.21
2023-03-08T14:19:25.445Z,10.15
2023-03-08T14:22:39.780Z,10.08
2023-03-08T14:25:57.346Z,10.01
2023-03-08T14:29:21.882Z,9.96
2023-03-08T14:32:36.165Z,9.93
2023-03-08T14:35:46.714Z,9.89
2023-03-08T14:38:53.758Z,9.82
2023-03-08T14:42:09.808Z,9.75
2023-03-08T14:45:22.298Z,9.70
2023-03-08T14:48:33.658Z,9.64
2023-03-08T14:51:43.621Z,9.59
2023-03-08T14:54:50.369Z,9.50
2023-03-08T14:58:00.373Z,9.42
2023-03-08T15:01:07.710Z,9.36
2023-03-08T15:04:19.803Z,9.30
2023-03-08T15:07:32.942Z,9.24
2023-03-08T15:10:41.312Z,9.19
2023-03-08T15:13:48.435Z,9.17
2023-03-08T15:16:56.140Z,9.13
2023-03-08T15:20:02.840Z,9.06
2023-03-08T15:23:10.610Z,9.00
2023-03-08T15:26:21.096Z,8.95
2023-03-08T15:29:32.302Z,8.88
2023-03-08T15:32:39.312Z,8.79
2023-03-08T15:35:46.891Z,8.74
2023-03-08T15:38:54.059Z,8.67
2023-03-08T15:42:01.289Z,8.58
2023-03-08T15:45:09.179Z,8.47
2023-03-08T15:48:18.870Z,8.35
2023-03-08T15:51:30.337Z,8.18
2023-03-08T15:54:37.179Z,8.07
2023-03-08T15:57:44.424Z,7.97
2023-03-08T16:00:52.359Z,7.89
2023-03-08T16:03:59.937Z,7.81
2023-03-08T16:07:06.868Z,7.71
2023-03-08T16:10:16.490Z,7.58
2023-03-08T16:13:23.551Z,7.46
2023-03-08T16:16:44.377Z,7.35
2023-03-08T16:19:52.033Z,7.27
2023-03-08T16:22:58.840Z,7.19
2023-03-08T16:26:15.221Z,7.13
2023-03-08T16:29:22.558Z,7.07
2023-03-08T16:32:29.503Z,7.02
2023-03-08T16:35:36.271Z,6.97
2023-03-08T16:38:43.113Z,6.95
2023-03-08T16:41:50.145Z,6.89
2023-03-08T16:44:58.060Z,6.88
2023-03-08T16:48:05.564Z,6.89
2023-03-08T16:51:17.471Z,6.89
2023-03-08T16:54:24.692Z,6.88
2023-03-08T16:57:31.455Z,6.89
2023-03-08T17:00:38.211Z,6.89
2023-03-08T17:03:45.439Z,6.87
2023-03-08T17:06:52.310Z,6.86
2023-03-08T17:09:59.077Z,6.84
2023-03-08T17:13:05.868Z,6.76
2023-03-08T17:16:14.436Z,6.71
2023-03-08T17:19:21.362Z,6.69
2023-03-08T17:22:28.338Z,6.63
2023-03-08T17:25:38.571Z,6.57
2023-03-08T17:28:46.306Z,6.57
2023-03-08T17:31:53.641Z,6.54
2023-03-08T17:35:00.358Z,6.53
2023-03-08T17:38:07.201Z,6.50
2023-03-08T17:41:15.434Z,6.47
2023-03-08T17:44:22.391Z,6.42
2023-03-08T17:47:29.345Z,6.37
2023-03-08T17:50:36.713Z,6.34
2023-03-08T17:53:45.515Z,6.33
2023-03-08T17:56:52.292Z,6.30
2023-03-08T17:59:59.376Z,6.25
2023-03-08T18:03:06.065Z,6.22
2023-03-08T18:06:23.605Z,6.20
2023-03-08T18:09:32.206Z,6.17
2023-03-08T18:12:39.011Z,6.15
2023-03-08T18:15:45.838Z,6.15
2023-03-08T18:18:52.829Z,6.15
2023-03-08T18:21:59.966Z,6.16
2023-03-08T18:25:06.918Z,6.17
2023-03-08T18:28:13.730Z,6.18
2023-03-08T18:31:23.540Z,6.18
2023-03-08T18:34:30.695Z,6.17
2023-03-08T18:37:37.768Z,6.16
2023-03-08T18:40:45.017Z,6.14
2023-03-08T18:43:52.424Z,6.11
2023-03-08T18:46:59.208Z,6.08
2023-03-08T18:50:11.241Z,6.08
2023-03-08T18:53:18.392Z,6.08
2023-03-08T18:56:26.160Z,6.07
2023-03-08T18:59:33.521Z,6.06
2023-03-08T19:02:40.353Z,6.02
2023-03-08T19:05:47.290Z,6.00
2023-03-08T19:08:54.693Z,5.96
2023-03-08T19:12:03.175Z,5.92
2023-03-08T19:15:11.868Z,5.91
2023-03-08T19:18:18.661Z,5.90
2023-03-08T19:21:27.059Z,5.89
2023-03-08T19:24:34.481Z,5.88
2023-03-08T19:27:41.377Z,5.91
2023-03-08T19:30:48.357Z,6.00
2023-03-08T19:33:55.497Z,6.17
2023-03-08T19:37:03.264Z,6.30
2023-03-08T19:40:12.216Z,6.42
2023-03-08T19:43:19.168Z,6.53
2023-03-08T19:46:26.156Z,6.60
2023-03-08T19:49:34.349Z,6.64
2023-03-08T19:52:41.241Z,6.66
2023-03-08T19:55:53.659Z,6.68
2023-03-08T19:59:00.770Z,6.69
2023-03-08T20:02:09.409Z,6.68
2023-03-08T20:05:18.817Z,6.70
2023-03-08T20:08:26.716Z,6.73
2023-03-08T20:11:33.743Z,6.75
2023-03-08T20:14:40.790Z,6.79
2023-03-08T20:17:48.390Z,6.81
2023-03-08T20:20:57.378Z,6.82
2023-03-08T20:24:04.336Z,6.84
2023-03-08T20:27:11.242Z,6.86
2023-03-08T20:30:18.709Z,6.86
2023-03-08T20:33:25.433Z,6.84
2023-03-08T20:36:32.316Z,6.81
2023-03-08T20:39:39.146Z,6.78
2023-03-08T20:42:46.055Z,6.73
2023-03-08T20:45:52.874Z,6.71
2023-03-08T20:48:59.869Z,6.68
2023-03-08T20:52:07.216Z,6.64
2023-03-08T20:55:14.110Z,6.62
2023-03-08T20:58:20.941Z,6.60
2023-03-08T21:01:30.164Z,6.60
2023-03-08T21:04:37.081Z,6.59
2023-03-08T21:07:44.047Z,6.55
2023-03-08T21:10:50.813Z,6.52
2023-03-08T21:13:58.017Z,6.53
2023-03-08T21:17:04.713Z,6.51
2023-03-08T21:20:13.461Z,6.49
2023-03-08T21:23:23.363Z,6.47
2023-03-08T21:26:31.102Z,6.46
2023-03-08T21:29:37.858Z,6.47
2023-03-08T21:32:44.730Z,6.49
2023-03-08T21:35:51.826Z,6.51
2023-03-08T21:38:59.774Z,6.54
2023-03-08T21:42:07.024Z,6.55
2023-03-08T21:45:15.168Z,6.56
2023-03-08T21:48:22.032Z,6.55
2023-03-08T21:51:28.869Z,6.53
2023-03-08T21:54:35.759Z,6.49
2023-03-08T21:57:42.665Z,6.48
2023-03-08T22:00:49.531Z,6.48
2023-03-08T22:03:56.942Z,6.48
2023-03-08T22:07:03.728Z,6.47
2023-03-08T22:10:13.809Z,6.45
2023-03-08T22:13:20.669Z,6.46
2023-03-08T22:16:28.292Z,6.48
2023-03-08T22:19:35.189Z,6.48
2023-03-08T22:22:44.148Z,6.48
2023-03-08T22:25:51.124Z,6.49
2023-03-08T22:28:58.429Z,6.52
2023-03-08T22:32:05.598Z,6.54
2023-03-08T22:35:13.611Z,6.61
2023-03-08T22:38:21.120Z,6.66
2023-03-08T22:41:29.141Z,6.69
2023-03-08T22:44:36.004Z,6.71
2023-03-08T22:47:42.928Z,6.72
2023-03-08T22:50:56.309Z,6.73
2023-03-08T22:54:09.102Z,6.75
2023-03-08T22:57:16.925Z,6.77
2023-03-08T23:00:24.022Z,6.79
2023-03-08T23:03:31.593Z,6.82
2023-03-08T23:06:38.502Z,6.84
2023-03-08T23:09:45.364Z,6.90
2023-03-08T23:12:52.268Z,6.95
2023-03-08T23:15:59.030Z,6.99
2023-03-08T23:19:06.555Z,7.02
2023-03-08T23:22:13.615Z,7.05
2023-03-08T23:25:20.930Z,7.07
2023-03-08T23:28:28.096Z,7.12
2023-03-08T23:31:36.701Z,7.14
2023-03-08T23:34:43.572Z,7.16
2023-03-08T23:37:50.359Z,7.18
2023-03-08T23:40:57.060Z,7.21
2023-03-08T23:44:04.210Z,7.22
2023-03-08T23:47:11.118Z,7.23
2023-03-08T23:50:18.199Z,7.24
2023-03-08T23:53:25.073Z,7.23
2023-03-08T23:56:38.260Z,7.22
2023-03-08T23:59:45.293Z,7.23
